Ana Sayfa
METAR-TAF:

METAR-TAF

Havaalanları :

Sierra Blanca Regional Airport

Ruidoso, New Mexico, Amerika Birleşik Devletleri

Enlem: 33-28N, Boylam: 105-32W, yükseklik: 2076 m

Güncel hava durumu gözlemi

Rapor saat 00:35 UTC de 21 dakika önce yapıldı.
Rüzgar batıdan 5 kt
Sıcaklık -4°C
Nem 49%
Basınç 1023 hPa
Görüş mesafesi: 16.1 km
Açık gökyüzü

METAR: KSRR 260035Z AUTO 27005KT 10SM CLR M04/M13 A3022 RMK AO2

Saat: 17:56 (00:56 UTC)


TAF: eksik

4.000'den fazla havaalanı için hava durumu gözlemleri ve tahminleri (METAR ve TAF raporları).

Kullanılabilir istasyonlar harita üzerinde sarı ve kırmızı noktalarla gösterilir.

İstasyonun adını görmek için fareyi noktanın üzerinde gezdirin.

Sonrasında hava gözlem ve tahminlerini görmek için tıklayın.

Haritayı değiştirmek için: yaklaştırmak için siyah artı işaretli yeşil düğmeye ve uzaklaştırmak için de eksi işaretli düğmeye hızla tıklayın; bitişik haritalar için yeşil okları kullanın.


METAR-TAF: